sensor_id;sensor_type;location;lat;lon;timestamp;P1;durP1;ratioP1;P2;durP2;ratioP2
68806;SDS011;55800;54.272;18.558;2023-10-31T00:01:34;60.50;;;30.10;;
68806;SDS011;55800;54.272;18.558;2023-10-31T00:04:04;59.15;;;30.20;;
68806;SDS011;55800;54.272;18.558;2023-10-31T00:09:02;47.42;;;25.52;;
68806;SDS011;55800;54.272;18.558;2023-10-31T00:11:33;49.17;;;26.60;;
68806;SDS011;55800;54.272;18.558;2023-10-31T00:14:03;47.65;;;25.38;;
68806;SDS011;55800;54.272;18.558;2023-10-31T00:16:53;53.85;;;25.98;;
68806;SDS011;55800;54.272;18.558;2023-10-31T00:19:22;57.92;;;25.17;;
68806;SDS011;55800;54.272;18.558;2023-10-31T00:21:52;46.35;;;25.63;;
68806;SDS011;55800;54.272;18.558;2023-10-31T00:24:22;41.40;;;23.35;;
68806;SDS011;55800;54.272;18.558;2023-10-31T00:26:52;52.67;;;25.95;;
68806;SDS011;55800;54.272;18.558;2023-10-31T00:29:22;47.42;;;26.38;;
68806;SDS011;55800;54.272;18.558;2023-10-31T00:31:51;43.28;;;23.13;;
68806;SDS011;55800;54.272;18.558;2023-10-31T00:34:21;51.42;;;27.88;;
68806;SDS011;55800;54.272;18.558;2023-10-31T00:36:50;44.35;;;26.20;;
68806;SDS011;55800;54.272;18.558;2023-10-31T00:39:19;43.58;;;25.92;;
68806;SDS011;55800;54.272;18.558;2023-10-31T00:41:51;56.95;;;28.05;;
68806;SDS011;55800;54.272;18.558;2023-10-31T00:44:20;47.08;;;27.75;;
68806;SDS011;55800;54.272;18.558;2023-10-31T00:46:49;46.05;;;26.63;;
68806;SDS011;55800;54.272;18.558;2023-10-31T00:49:19;53.60;;;26.02;;
68806;SDS011;55800;54.272;18.558;2023-10-31T00:51:48;48.47;;;24.67;;
68806;SDS011;55800;54.272;18.558;2023-10-31T00:54:18;43.97;;;23.95;;
68806;SDS011;55800;54.272;18.558;2023-10-31T00:56:47;46.78;;;24.25;;
68806;SDS011;55800;54.272;18.558;2023-10-31T00:59:19;43.65;;;24.00;;
68806;SDS011;55800;54.272;18.558;2023-10-31T01:01:48;48.58;;;24.83;;
68806;SDS011;55800;54.272;18.558;2023-10-31T01:11:46;37.30;;;21.23;;
68806;SDS011;55800;54.272;18.558;2023-10-31T01:16:46;38.40;;;21.75;;
68806;SDS011;55800;54.272;18.558;2023-10-31T01:19:16;43.50;;;24.23;;
68806;SDS011;55800;54.272;18.558;2023-10-31T01:21:45;49.20;;;25.48;;
68806;SDS011;55800;54.272;18.558;2023-10-31T01:24:14;46.08;;;25.02;;
68806;SDS011;55800;54.272;18.558;2023-10-31T01:26:44;44.95;;;24.83;;
68806;SDS011;55800;54.272;18.558;2023-10-31T01:29:13;42.63;;;26.73;;
68806;SDS011;55800;54.272;18.558;2023-10-31T01:31:42;43.13;;;22.20;;
68806;SDS011;55800;54.272;18.558;2023-10-31T01:34:29;42.17;;;21.55;;
68806;SDS011;55800;54.272;18.558;2023-10-31T01:36:58;44.95;;;24.90;;
68806;SDS011;55800;54.272;18.558;2023-10-31T01:39:28;39.38;;;23.42;;
68806;SDS011;55800;54.272;18.558;2023-10-31T01:41:57;50.55;;;22.38;;
68806;SDS011;55800;54.272;18.558;2023-10-31T01:44:27;40.25;;;23.00;;
68806;SDS011;55800;54.272;18.558;2023-10-31T01:46:57;43.47;;;23.42;;
68806;SDS011;55800;54.272;18.558;2023-10-31T01:49:26;40.28;;;24.10;;
68806;SDS011;55800;54.272;18.558;2023-10-31T01:51:57;44.72;;;21.92;;
68806;SDS011;55800;54.272;18.558;2023-10-31T01:54:27;36.20;;;20.95;;
68806;SDS011;55800;54.272;18.558;2023-10-31T01:56:56;44.35;;;23.75;;
68806;SDS011;55800;54.272;18.558;2023-10-31T01:59:27;45.35;;;25.55;;
68806;SDS011;55800;54.272;18.558;2023-10-31T02:04:25;46.17;;;21.90;;
68806;SDS011;55800;54.272;18.558;2023-10-31T02:06:56;48.33;;;23.00;;
68806;SDS011;55800;54.272;18.558;2023-10-31T02:09:26;41.20;;;21.50;;
68806;SDS011;55800;54.272;18.558;2023-10-31T02:11:57;34.40;;;19.85;;
68806;SDS011;55800;54.272;18.558;2023-10-31T02:16:55;33.28;;;21.10;;
68806;SDS011;55800;54.272;18.558;2023-10-31T02:19:26;35.65;;;21.90;;
68806;SDS011;55800;54.272;18.558;2023-10-31T02:24:26;40.55;;;20.98;;
68806;SDS011;55800;54.272;18.558;2023-10-31T02:26:57;33.60;;;20.67;;
68806;SDS011;55800;54.272;18.558;2023-10-31T02:31:56;47.47;;;21.98;;
68806;SDS011;55800;54.272;18.558;2023-10-31T02:34:25;36.17;;;21.80;;
68806;SDS011;55800;54.272;18.558;2023-10-31T02:36:55;39.65;;;22.38;;
68806;SDS011;55800;54.272;18.558;2023-10-31T02:39:26;36.58;;;20.63;;
68806;SDS011;55800;54.272;18.558;2023-10-31T02:41:55;32.45;;;19.52;;
68806;SDS011;55800;54.272;18.558;2023-10-31T02:44:25;42.35;;;20.33;;
68806;SDS011;55800;54.272;18.558;2023-10-31T02:46:54;44.00;;;23.60;;
68806;SDS011;55800;54.272;18.558;2023-10-31T02:49:24;37.75;;;21.70;;
68806;SDS011;55800;54.272;18.558;2023-10-31T02:51:53;49.28;;;23.20;;
68806;SDS011;55800;54.272;18.558;2023-10-31T02:56:54;33.53;;;18.20;;
68806;SDS011;55800;54.272;18.558;2023-10-31T03:01:52;35.08;;;18.77;;
68806;SDS011;55800;54.272;18.558;2023-10-31T03:04:24;30.73;;;18.63;;
68806;SDS011;55800;54.272;18.558;2023-10-31T03:06:53;39.67;;;20.98;;
68806;SDS011;55800;54.272;18.558;2023-10-31T03:11:54;40.55;;;21.02;;
68806;SDS011;55800;54.272;18.558;2023-10-31T03:19:23;34.10;;;18.48;;
68806;SDS011;55800;54.272;18.558;2023-10-31T03:21:52;36.03;;;18.42;;
68806;SDS011;55800;54.272;18.558;2023-10-31T03:24:21;41.25;;;19.15;;
68806;SDS011;55800;54.272;18.558;2023-10-31T03:26:52;36.45;;;19.42;;
68806;SDS011;55800;54.272;18.558;2023-10-31T03:29:22;37.00;;;20.77;;
68806;SDS011;55800;54.272;18.558;2023-10-31T03:31:51;36.13;;;20.25;;
68806;SDS011;55800;54.272;18.558;2023-10-31T03:34:21;44.17;;;20.40;;
68806;SDS011;55800;54.272;18.558;2023-10-31T03:36:50;44.33;;;20.17;;
68806;SDS011;55800;54.272;18.558;2023-10-31T03:39:20;35.33;;;20.88;;
68806;SDS011;55800;54.272;18.558;2023-10-31T03:41:49;35.50;;;19.52;;
68806;SDS011;55800;54.272;18.558;2023-10-31T03:44:24;36.10;;;19.83;;
68806;SDS011;55800;54.272;18.558;2023-10-31T03:46:53;39.75;;;21.60;;
68806;SDS011;55800;54.272;18.558;2023-10-31T03:51:52;36.88;;;18.50;;
68806;SDS011;55800;54.272;18.558;2023-10-31T03:56:52;31.13;;;17.48;;
68806;SDS011;55800;54.272;18.558;2023-10-31T03:59:21;37.72;;;19.50;;
68806;SDS011;55800;54.272;18.558;2023-10-31T04:01:51;34.30;;;17.92;;
68806;SDS011;55800;54.272;18.558;2023-10-31T04:04:20;33.75;;;19.48;;
68806;SDS011;55800;54.272;18.558;2023-10-31T04:06:49;36.50;;;19.95;;
68806;SDS011;55800;54.272;18.558;2023-10-31T04:09:19;44.38;;;22.08;;
68806;SDS011;55800;54.272;18.558;2023-10-31T04:11:48;36.42;;;18.85;;
68806;SDS011;55800;54.272;18.558;2023-10-31T04:14:19;36.55;;;19.52;;
68806;SDS011;55800;54.272;18.558;2023-10-31T04:16:48;36.53;;;19.50;;
68806;SDS011;55800;54.272;18.558;2023-10-31T04:19:18;35.25;;;18.40;;
68806;SDS011;55800;54.272;18.558;2023-10-31T04:21:47;32.40;;;20.25;;
68806;SDS011;55800;54.272;18.558;2023-10-31T04:24:17;30.77;;;19.50;;
68806;SDS011;55800;54.272;18.558;2023-10-31T04:26:46;35.40;;;19.17;;
68806;SDS011;55800;54.272;18.558;2023-10-31T04:31:46;32.97;;;19.25;;
68806;SDS011;55800;54.272;18.558;2023-10-31T04:34:16;34.60;;;19.77;;
68806;SDS011;55800;54.272;18.558;2023-10-31T04:36:45;37.72;;;20.77;;
68806;SDS011;55800;54.272;18.558;2023-10-31T04:39:15;38.78;;;20.77;;
68806;SDS011;55800;54.272;18.558;2023-10-31T04:41:44;37.83;;;19.23;;
68806;SDS011;55800;54.272;18.558;2023-10-31T04:44:13;38.28;;;20.33;;
68806;SDS011;55800;54.272;18.558;2023-10-31T04:46:43;37.78;;;21.85;;
68806;SDS011;55800;54.272;18.558;2023-10-31T04:49:15;41.45;;;22.42;;
68806;SDS011;55800;54.272;18.558;2023-10-31T04:51:45;36.88;;;21.00;;
68806;SDS011;55800;54.272;18.558;2023-10-31T04:54:14;36.53;;;22.80;;
68806;SDS011;55800;54.272;18.558;2023-10-31T04:56:43;34.92;;;20.75;;
68806;SDS011;55800;54.272;18.558;2023-10-31T04:59:13;38.38;;;21.80;;
68806;SDS011;55800;54.272;18.558;2023-10-31T05:01:47;39.35;;;22.58;;
68806;SDS011;55800;54.272;18.558;2023-10-31T05:04:19;34.25;;;20.67;;
68806;SDS011;55800;54.272;18.558;2023-10-31T05:06:48;39.30;;;23.05;;
68806;SDS011;55800;54.272;18.558;2023-10-31T05:09:18;37.55;;;20.48;;
68806;SDS011;55800;54.272;18.558;2023-10-31T05:11:48;43.92;;;23.58;;
68806;SDS011;55800;54.272;18.558;2023-10-31T05:14:18;36.10;;;21.42;;
68806;SDS011;55800;54.272;18.558;2023-10-31T05:16:47;34.88;;;22.38;;
68806;SDS011;55800;54.272;18.558;2023-10-31T05:19:17;39.90;;;20.67;;
68806;SDS011;55800;54.272;18.558;2023-10-31T05:21:47;37.67;;;21.83;;
68806;SDS011;55800;54.272;18.558;2023-10-31T05:24:17;40.30;;;22.77;;
68806;SDS011;55800;54.272;18.558;2023-10-31T05:29:16;42.22;;;21.50;;
68806;SDS011;55800;54.272;18.558;2023-10-31T05:31:45;37.70;;;22.58;;
68806;SDS011;55800;54.272;18.558;2023-10-31T05:36:45;43.10;;;22.95;;
68806;SDS011;55800;54.272;18.558;2023-10-31T05:39:14;44.50;;;23.15;;
68806;SDS011;55800;54.272;18.558;2023-10-31T05:41:44;37.30;;;23.95;;
68806;SDS011;55800;54.272;18.558;2023-10-31T05:44:13;49.55;;;25.70;;
68806;SDS011;55800;54.272;18.558;2023-10-31T05:49:12;40.75;;;22.90;;
68806;SDS011;55800;54.272;18.558;2023-10-31T05:51:41;38.88;;;23.20;;
68806;SDS011;55800;54.272;18.558;2023-10-31T05:54:12;43.05;;;24.65;;
68806;SDS011;55800;54.272;18.558;2023-10-31T05:56:41;48.10;;;25.20;;
68806;SDS011;55800;54.272;18.558;2023-10-31T05:59:11;51.72;;;25.92;;
68806;SDS011;55800;54.272;18.558;2023-10-31T06:01:41;44.10;;;22.23;;
68806;SDS011;55800;54.272;18.558;2023-10-31T06:04:11;41.75;;;22.77;;
68806;SDS011;55800;54.272;18.558;2023-10-31T06:06:40;47.38;;;24.40;;
68806;SDS011;55800;54.272;18.558;2023-10-31T06:09:09;44.65;;;23.77;;
68806;SDS011;55800;54.272;18.558;2023-10-31T06:11:41;50.75;;;25.25;;
68806;SDS011;55800;54.272;18.558;2023-10-31T06:14:11;45.85;;;25.08;;
68806;SDS011;55800;54.272;18.558;2023-10-31T06:19:10;45.75;;;24.58;;
68806;SDS011;55800;54.272;18.558;2023-10-31T06:21:39;43.35;;;24.65;;
68806;SDS011;55800;54.272;18.558;2023-10-31T06:24:09;47.70;;;23.08;;
68806;SDS011;55800;54.272;18.558;2023-10-31T06:26:42;46.47;;;23.02;;
68806;SDS011;55800;54.272;18.558;2023-10-31T06:29:11;40.53;;;22.52;;
68806;SDS011;55800;54.272;18.558;2023-10-31T06:32:00;45.83;;;21.08;;
68806;SDS011;55800;54.272;18.558;2023-10-31T06:34:30;43.55;;;26.85;;
68806;SDS011;55800;54.272;18.558;2023-10-31T06:36:59;39.65;;;21.02;;
68806;SDS011;55800;54.272;18.558;2023-10-31T06:39:31;47.42;;;25.25;;
68806;SDS011;55800;54.272;18.558;2023-10-31T06:42:01;46.13;;;22.65;;
68806;SDS011;55800;54.272;18.558;2023-10-31T06:44:30;51.25;;;24.58;;
68806;SDS011;55800;54.272;18.558;2023-10-31T06:47:00;44.38;;;24.08;;
68806;SDS011;55800;54.272;18.558;2023-10-31T06:49:29;42.75;;;24.33;;
68806;SDS011;55800;54.272;18.558;2023-10-31T06:51:58;47.42;;;25.45;;
68806;SDS011;55800;54.272;18.558;2023-10-31T06:54:28;50.80;;;27.77;;
68806;SDS011;55800;54.272;18.558;2023-10-31T06:57:02;44.25;;;23.70;;
68806;SDS011;55800;54.272;18.558;2023-10-31T06:59:32;55.08;;;25.73;;
68806;SDS011;55800;54.272;18.558;2023-10-31T07:02:02;45.33;;;25.48;;
68806;SDS011;55800;54.272;18.558;2023-10-31T07:04:31;50.33;;;26.80;;
68806;SDS011;55800;54.272;18.558;2023-10-31T07:07:00;49.85;;;25.23;;
68806;SDS011;55800;54.272;18.558;2023-10-31T07:09:30;47.20;;;25.98;;
68806;SDS011;55800;54.272;18.558;2023-10-31T07:12:00;46.40;;;23.67;;
68806;SDS011;55800;54.272;18.558;2023-10-31T07:14:30;46.85;;;24.38;;
68806;SDS011;55800;54.272;18.558;2023-10-31T07:16:59;48.15;;;26.00;;
68806;SDS011;55800;54.272;18.558;2023-10-31T07:19:29;48.70;;;27.70;;
68806;SDS011;55800;54.272;18.558;2023-10-31T07:21:58;47.15;;;27.77;;
68806;SDS011;55800;54.272;18.558;2023-10-31T07:26:58;46.67;;;25.75;;
68806;SDS011;55800;54.272;18.558;2023-10-31T07:29:27;46.97;;;24.73;;
68806;SDS011;55800;54.272;18.558;2023-10-31T07:31:57;46.42;;;26.05;;
68806;SDS011;55800;54.272;18.558;2023-10-31T07:34:27;42.75;;;24.38;;
68806;SDS011;55800;54.272;18.558;2023-10-31T07:36:57;43.03;;;25.92;;
68806;SDS011;55800;54.272;18.558;2023-10-31T07:39:26;49.38;;;28.45;;
68806;SDS011;55800;54.272;18.558;2023-10-31T07:41:57;42.67;;;24.27;;
68806;SDS011;55800;54.272;18.558;2023-10-31T07:44:27;39.08;;;24.13;;
68806;SDS011;55800;54.272;18.558;2023-10-31T07:46:56;44.00;;;24.98;;
68806;SDS011;55800;54.272;18.558;2023-10-31T07:51:54;44.20;;;23.85;;
68806;SDS011;55800;54.272;18.558;2023-10-31T07:54:24;47.20;;;23.50;;
68806;SDS011;55800;54.272;18.558;2023-10-31T07:56:53;40.83;;;24.13;;
68806;SDS011;55800;54.272;18.558;2023-10-31T08:01:54;40.88;;;21.55;;
68806;SDS011;55800;54.272;18.558;2023-10-31T08:04:23;39.80;;;22.85;;
68806;SDS011;55800;54.272;18.558;2023-10-31T08:06:53;42.17;;;23.00;;
68806;SDS011;55800;54.272;18.558;2023-10-31T08:09:22;40.75;;;24.27;;
68806;SDS011;55800;54.272;18.558;2023-10-31T08:11:51;37.83;;;22.85;;
68806;SDS011;55800;54.272;18.558;2023-10-31T08:14:21;40.33;;;22.20;;
68806;SDS011;55800;54.272;18.558;2023-10-31T08:16:53;34.40;;;21.27;;
68806;SDS011;55800;54.272;18.558;2023-10-31T08:19:23;45.40;;;24.75;;
68806;SDS011;55800;54.272;18.558;2023-10-31T08:21:52;40.88;;;22.70;;
68806;SDS011;55800;54.272;18.558;2023-10-31T08:24:25;40.35;;;22.13;;
68806;SDS011;55800;54.272;18.558;2023-10-31T08:26:54;39.97;;;24.50;;
68806;SDS011;55800;54.272;18.558;2023-10-31T08:29:24;39.85;;;22.50;;
68806;SDS011;55800;54.272;18.558;2023-10-31T08:31:54;39.40;;;22.42;;
68806;SDS011;55800;54.272;18.558;2023-10-31T08:34:24;40.28;;;22.25;;
68806;SDS011;55800;54.272;18.558;2023-10-31T08:36:53;39.17;;;22.52;;
68806;SDS011;55800;54.272;18.558;2023-10-31T08:39:24;37.28;;;21.02;;
68806;SDS011;55800;54.272;18.558;2023-10-31T08:41:55;48.33;;;23.70;;
68806;SDS011;55800;54.272;18.558;2023-10-31T08:44:26;39.80;;;22.75;;
68806;SDS011;55800;54.272;18.558;2023-10-31T08:46:57;44.58;;;23.30;;
68806;SDS011;55800;54.272;18.558;2023-10-31T08:49:26;41.20;;;22.45;;
68806;SDS011;55800;54.272;18.558;2023-10-31T08:51:55;43.90;;;23.27;;
68806;SDS011;55800;54.272;18.558;2023-10-31T08:54:25;38.72;;;22.55;;
68806;SDS011;55800;54.272;18.558;2023-10-31T08:56:54;37.58;;;21.15;;
68806;SDS011;55800;54.272;18.558;2023-10-31T08:59:23;35.38;;;22.90;;
68806;SDS011;55800;54.272;18.558;2023-10-31T09:01:53;45.08;;;23.52;;
68806;SDS011;55800;54.272;18.558;2023-10-31T09:04:23;40.92;;;23.25;;
68806;SDS011;55800;54.272;18.558;2023-10-31T09:06:53;47.00;;;21.98;;
68806;SDS011;55800;54.272;18.558;2023-10-31T09:09:22;38.67;;;22.38;;
68806;SDS011;55800;54.272;18.558;2023-10-31T09:11:51;36.10;;;20.80;;
68806;SDS011;55800;54.272;18.558;2023-10-31T09:14:21;28.15;;;18.95;;
68806;SDS011;55800;54.272;18.558;2023-10-31T09:16:50;37.33;;;21.38;;
68806;SDS011;55800;54.272;18.558;2023-10-31T09:21:50;35.72;;;21.00;;
68806;SDS011;55800;54.272;18.558;2023-10-31T09:24:19;36.10;;;22.65;;
68806;SDS011;55800;54.272;18.558;2023-10-31T09:26:50;31.02;;;19.25;;
68806;SDS011;55800;54.272;18.558;2023-10-31T09:31:55;34.92;;;22.20;;
68806;SDS011;55800;54.272;18.558;2023-10-31T09:34:26;43.97;;;24.13;;
68806;SDS011;55800;54.272;18.558;2023-10-31T09:36:57;35.72;;;21.38;;
68806;SDS011;55800;54.272;18.558;2023-10-31T09:39:27;34.45;;;20.63;;
68806;SDS011;55800;54.272;18.558;2023-10-31T09:41:56;35.28;;;22.10;;
68806;SDS011;55800;54.272;18.558;2023-10-31T09:46:55;34.22;;;20.95;;
68806;SDS011;55800;54.272;18.558;2023-10-31T09:49:25;29.15;;;20.63;;
68806;SDS011;55800;54.272;18.558;2023-10-31T09:51:55;33.47;;;21.52;;
68806;SDS011;55800;54.272;18.558;2023-10-31T09:54:26;28.45;;;19.85;;
68806;SDS011;55800;54.272;18.558;2023-10-31T09:56:56;26.85;;;16.55;;
68806;SDS011;55800;54.272;18.558;2023-10-31T09:59:25;28.63;;;17.80;;
68806;SDS011;55800;54.272;18.558;2023-10-31T10:04:24;20.25;;;13.90;;
68806;SDS011;55800;54.272;18.558;2023-10-31T10:06:59;15.15;;;12.52;;
68806;SDS011;55800;54.272;18.558;2023-10-31T10:09:30;26.65;;;14.40;;
68806;SDS011;55800;54.272;18.558;2023-10-31T10:12:00;21.48;;;13.73;;
68806;SDS011;55800;54.272;18.558;2023-10-31T10:14:30;18.80;;;13.85;;
68806;SDS011;55800;54.272;18.558;2023-10-31T10:17:00;24.52;;;16.73;;
68806;SDS011;55800;54.272;18.558;2023-10-31T10:19:29;19.92;;;11.23;;
68806;SDS011;55800;54.272;18.558;2023-10-31T10:22:00;17.58;;;11.65;;
68806;SDS011;55800;54.272;18.558;2023-10-31T10:24:30;15.43;;;10.30;;
68806;SDS011;55800;54.272;18.558;2023-10-31T10:26:59;16.33;;;11.77;;
68806;SDS011;55800;54.272;18.558;2023-10-31T10:31:57;13.68;;;7.80;;
68806;SDS011;55800;54.272;18.558;2023-10-31T10:34:27;12.65;;;8.68;;
68806;SDS011;55800;54.272;18.558;2023-10-31T10:36:56;13.32;;;8.32;;
68806;SDS011;55800;54.272;18.558;2023-10-31T10:39:27;13.38;;;9.30;;
68806;SDS011;55800;54.272;18.558;2023-10-31T10:42:01;12.18;;;7.75;;
68806;SDS011;55800;54.272;18.558;2023-10-31T10:44:37;10.52;;;6.53;;
68806;SDS011;55800;54.272;18.558;2023-10-31T10:47:12;10.25;;;5.88;;
68806;SDS011;55800;54.272;18.558;2023-10-31T10:49:42;11.77;;;7.20;;
68806;SDS011;55800;54.272;18.558;2023-10-31T10:52:17;9.88;;;5.90;;
68806;SDS011;55800;54.272;18.558;2023-10-31T10:54:53;8.23;;;5.65;;
68806;SDS011;55800;54.272;18.558;2023-10-31T10:57:32;11.77;;;4.68;;
68806;SDS011;55800;54.272;18.558;2023-10-31T11:00:06;8.13;;;5.03;;
68806;SDS011;55800;54.272;18.558;2023-10-31T11:02:39;6.68;;;4.90;;
68806;SDS011;55800;54.272;18.558;2023-10-31T11:05:10;6.13;;;4.05;;
68806;SDS011;55800;54.272;18.558;2023-10-31T11:07:40;7.10;;;4.80;;
68806;SDS011;55800;54.272;18.558;2023-10-31T11:10:11;6.47;;;4.82;;
68806;SDS011;55800;54.272;18.558;2023-10-31T11:12:42;7.32;;;4.78;;
68806;SDS011;55800;54.272;18.558;2023-10-31T11:15:13;5.03;;;3.30;;
68806;SDS011;55800;54.272;18.558;2023-10-31T11:17:45;6.20;;;4.18;;
68806;SDS011;55800;54.272;18.558;2023-10-31T11:20:16;8.25;;;5.13;;
68806;SDS011;55800;54.272;18.558;2023-10-31T11:22:47;8.77;;;5.25;;
68806;SDS011;55800;54.272;18.558;2023-10-31T11:25:25;7.20;;;4.60;;
68806;SDS011;55800;54.272;18.558;2023-10-31T11:28:10;6.22;;;4.70;;
68806;SDS011;55800;54.272;18.558;2023-10-31T11:30:41;7.90;;;5.65;;
68806;SDS011;55800;54.272;18.558;2023-10-31T11:33:11;7.88;;;5.03;;
68806;SDS011;55800;54.272;18.558;2023-10-31T11:35:42;5.75;;;4.15;;
68806;SDS011;55800;54.272;18.558;2023-10-31T11:38:12;8.73;;;5.43;;
68806;SDS011;55800;54.272;18.558;2023-10-31T11:46:22;7.80;;;4.43;;
68806;SDS011;55800;54.272;18.558;2023-10-31T11:48:53;7.35;;;4.93;;
68806;SDS011;55800;54.272;18.558;2023-10-31T11:51:24;5.85;;;3.90;;
68806;SDS011;55800;54.272;18.558;2023-10-31T11:56:25;6.50;;;4.07;;
68806;SDS011;55800;54.272;18.558;2023-10-31T11:58:55;6.03;;;3.53;;
68806;SDS011;55800;54.272;18.558;2023-10-31T12:01:25;6.47;;;3.90;;
68806;SDS011;55800;54.272;18.558;2023-10-31T12:03:55;6.65;;;4.30;;
68806;SDS011;55800;54.272;18.558;2023-10-31T12:06:25;6.25;;;3.88;;
68806;SDS011;55800;54.272;18.558;2023-10-31T12:11:28;3.95;;;2.53;;
68806;SDS011;55800;54.272;18.558;2023-10-31T12:13:59;4.47;;;2.88;;
68806;SDS011;55800;54.272;18.558;2023-10-31T12:16:33;5.43;;;2.83;;
68806;SDS011;55800;54.272;18.558;2023-10-31T12:19:02;3.97;;;2.58;;
68806;SDS011;55800;54.272;18.558;2023-10-31T12:21:35;5.03;;;2.80;;
68806;SDS011;55800;54.272;18.558;2023-10-31T12:24:05;5.00;;;2.90;;
68806;SDS011;55800;54.272;18.558;2023-10-31T12:26:37;3.95;;;2.88;;
68806;SDS011;55800;54.272;18.558;2023-10-31T12:29:11;5.40;;;1.77;;
68806;SDS011;55800;54.272;18.558;2023-10-31T12:31:45;4.28;;;2.85;;
68806;SDS011;55800;54.272;18.558;2023-10-31T12:34:17;3.15;;;2.55;;
68806;SDS011;55800;54.272;18.558;2023-10-31T12:36:48;3.90;;;2.60;;
68806;SDS011;55800;54.272;18.558;2023-10-31T12:39:20;6.07;;;3.53;;
68806;SDS011;55800;54.272;18.558;2023-10-31T12:41:52;4.88;;;2.55;;
68806;SDS011;55800;54.272;18.558;2023-10-31T12:44:24;4.53;;;2.63;;
68806;SDS011;55800;54.272;18.558;2023-10-31T12:46:56;4.50;;;3.33;;
68806;SDS011;55800;54.272;18.558;2023-10-31T12:49:26;4.93;;;2.95;;
68806;SDS011;55800;54.272;18.558;2023-10-31T12:54:30;6.95;;;2.60;;
68806;SDS011;55800;54.272;18.558;2023-10-31T12:57:03;5.68;;;3.00;;
68806;SDS011;55800;54.272;18.558;2023-10-31T12:59:34;5.38;;;3.30;;
68806;SDS011;55800;54.272;18.558;2023-10-31T13:02:06;4.60;;;3.13;;
68806;SDS011;55800;54.272;18.558;2023-10-31T13:04:37;4.90;;;3.17;;
68806;SDS011;55800;54.272;18.558;2023-10-31T13:07:07;4.65;;;2.70;;
68806;SDS011;55800;54.272;18.558;2023-10-31T13:09:37;5.32;;;4.03;;
68806;SDS011;55800;54.272;18.558;2023-10-31T13:12:10;7.25;;;4.75;;
68806;SDS011;55800;54.272;18.558;2023-10-31T13:14:40;5.15;;;3.95;;
68806;SDS011;55800;54.272;18.558;2023-10-31T13:19:38;4.80;;;4.03;;
68806;SDS011;55800;54.272;18.558;2023-10-31T13:22:08;6.18;;;4.45;;
68806;SDS011;55800;54.272;18.558;2023-10-31T13:24:37;6.55;;;4.32;;
68806;SDS011;55800;54.272;18.558;2023-10-31T13:27:07;6.55;;;3.95;;
68806;SDS011;55800;54.272;18.558;2023-10-31T13:29:43;7.00;;;3.40;;
68806;SDS011;55800;54.272;18.558;2023-10-31T13:32:16;9.20;;;5.10;;
68806;SDS011;55800;54.272;18.558;2023-10-31T13:34:47;7.82;;;4.65;;
68806;SDS011;55800;54.272;18.558;2023-10-31T13:37:16;8.55;;;4.20;;
68806;SDS011;55800;54.272;18.558;2023-10-31T13:39:46;8.65;;;5.47;;
68806;SDS011;55800;54.272;18.558;2023-10-31T13:42:16;9.90;;;5.00;;
68806;SDS011;55800;54.272;18.558;2023-10-31T13:44:46;6.13;;;4.57;;
68806;SDS011;55800;54.272;18.558;2023-10-31T13:47:16;9.75;;;5.13;;
68806;SDS011;55800;54.272;18.558;2023-10-31T13:49:45;11.27;;;2.72;;
68806;SDS011;55800;54.272;18.558;2023-10-31T13:52:15;5.50;;;3.60;;
68806;SDS011;55800;54.272;18.558;2023-10-31T13:54:45;8.43;;;4.05;;
68806;SDS011;55800;54.272;18.558;2023-10-31T13:57:15;7.30;;;4.63;;
68806;SDS011;55800;54.272;18.558;2023-10-31T13:59:44;8.50;;;4.78;;
68806;SDS011;55800;54.272;18.558;2023-10-31T14:02:15;6.13;;;4.40;;
68806;SDS011;55800;54.272;18.558;2023-10-31T14:04:45;7.28;;;4.75;;
68806;SDS011;55800;54.272;18.558;2023-10-31T14:07:17;6.03;;;3.80;;
68806;SDS011;55800;54.272;18.558;2023-10-31T14:09:50;4.70;;;3.05;;
68806;SDS011;55800;54.272;18.558;2023-10-31T14:12:20;5.68;;;3.75;;
68806;SDS011;55800;54.272;18.558;2023-10-31T14:14:50;2.55;;;1.95;;
68806;SDS011;55800;54.272;18.558;2023-10-31T14:17:20;3.38;;;2.00;;
68806;SDS011;55800;54.272;18.558;2023-10-31T14:19:50;5.75;;;2.85;;
68806;SDS011;55800;54.272;18.558;2023-10-31T14:22:20;7.28;;;3.03;;
68806;SDS011;55800;54.272;18.558;2023-10-31T14:24:49;5.75;;;3.00;;
68806;SDS011;55800;54.272;18.558;2023-10-31T14:27:19;4.68;;;2.47;;
68806;SDS011;55800;54.272;18.558;2023-10-31T14:29:48;3.08;;;2.08;;
68806;SDS011;55800;54.272;18.558;2023-10-31T14:32:20;4.80;;;3.38;;
68806;SDS011;55800;54.272;18.558;2023-10-31T14:34:49;5.13;;;3.20;;
68806;SDS011;55800;54.272;18.558;2023-10-31T14:37:19;4.78;;;3.10;;
68806;SDS011;55800;54.272;18.558;2023-10-31T14:39:48;3.90;;;2.25;;
68806;SDS011;55800;54.272;18.558;2023-10-31T14:42:17;3.53;;;2.38;;
68806;SDS011;55800;54.272;18.558;2023-10-31T14:44:47;5.20;;;2.70;;
68806;SDS011;55800;54.272;18.558;2023-10-31T14:49:47;4.78;;;2.72;;
68806;SDS011;55800;54.272;18.558;2023-10-31T14:54:46;3.65;;;2.25;;
68806;SDS011;55800;54.272;18.558;2023-10-31T14:57:16;5.50;;;3.08;;
68806;SDS011;55800;54.272;18.558;2023-10-31T15:02:16;3.65;;;2.20;;
68806;SDS011;55800;54.272;18.558;2023-10-31T15:04:47;5.13;;;2.65;;
68806;SDS011;55800;54.272;18.558;2023-10-31T15:07:17;5.03;;;2.63;;
68806;SDS011;55800;54.272;18.558;2023-10-31T15:09:46;5.43;;;2.60;;
68806;SDS011;55800;54.272;18.558;2023-10-31T15:14:45;5.15;;;2.40;;
68806;SDS011;55800;54.272;18.558;2023-10-31T15:19:45;5.07;;;2.80;;
68806;SDS011;55800;54.272;18.558;2023-10-31T15:22:14;5.35;;;2.55;;
68806;SDS011;55800;54.272;18.558;2023-10-31T15:24:43;4.05;;;2.72;;
68806;SDS011;55800;54.272;18.558;2023-10-31T15:27:13;5.07;;;2.45;;
68806;SDS011;55800;54.272;18.558;2023-10-31T15:29:46;4.18;;;2.70;;
68806;SDS011;55800;54.272;18.558;2023-10-31T15:32:15;3.85;;;2.22;;
68806;SDS011;55800;54.272;18.558;2023-10-31T15:34:46;7.05;;;2.53;;
68806;SDS011;55800;54.272;18.558;2023-10-31T15:37:16;3.95;;;2.10;;
68806;SDS011;55800;54.272;18.558;2023-10-31T15:39:46;4.82;;;2.42;;
68806;SDS011;55800;54.272;18.558;2023-10-31T15:42:18;3.15;;;1.75;;
68806;SDS011;55800;54.272;18.558;2023-10-31T15:44:50;3.33;;;2.35;;
68806;SDS011;55800;54.272;18.558;2023-10-31T15:47:22;2.75;;;1.95;;
68806;SDS011;55800;54.272;18.558;2023-10-31T15:49:53;3.45;;;2.38;;
68806;SDS011;55800;54.272;18.558;2023-10-31T15:52:22;3.92;;;2.22;;
68806;SDS011;55800;54.272;18.558;2023-10-31T15:54:51;2.33;;;1.70;;
68806;SDS011;55800;54.272;18.558;2023-10-31T15:57:21;2.35;;;1.75;;
68806;SDS011;55800;54.272;18.558;2023-10-31T15:59:51;4.38;;;1.77;;
68806;SDS011;55800;54.272;18.558;2023-10-31T16:02:20;2.17;;;1.55;;
68806;SDS011;55800;54.272;18.558;2023-10-31T16:04:50;2.65;;;1.77;;
68806;SDS011;55800;54.272;18.558;2023-10-31T16:07:21;2.90;;;1.65;;
68806;SDS011;55800;54.272;18.558;2023-10-31T16:09:50;3.78;;;1.70;;
68806;SDS011;55800;54.272;18.558;2023-10-31T16:12:19;1.67;;;1.40;;
68806;SDS011;55800;54.272;18.558;2023-10-31T16:14:48;3.42;;;1.55;;
68806;SDS011;55800;54.272;18.558;2023-10-31T16:19:47;4.35;;;2.20;;